AXB1996 VECC-VEBD
Flight info
| Callsign | AXB1996 |
|---|---|
| Flight time | N/A |
| Altitude | 32000 |
| Route | ONOTO2C ONOTO A467 KHR W105 LOTPU |
| Aircraft | A320/M-SDE3FGHIRWY/LB1 |
Departure
| Time | 2026-05-06 01:23 |
|---|---|
| Airport | Netaji Subhash Chandra Bose International Airport (VECC) |
Arrival
| Time | N/A |
|---|---|
| Airport | Bagdogra Airport (VEBD) |
| Time | Latitude | Longitude | Altitude | Speed | Heading |
|---|---|---|---|---|---|
| 2026-05-06 01:02 | 22.64307 | 88.44053 | 23 ft | 0 kts | 275° |
| 2026-05-06 01:09 | 22.64305 | 88.44075 | 23 ft | 4 kts | 279° |
| 2026-05-06 01:09 | 22.64299 | 88.44103 | 26 ft | 4 kts | 287° |
| 2026-05-06 01:10 | 22.64289 | 88.44130 | 23 ft | 4 kts | 307° |
| 2026-05-06 01:10 | 22.64271 | 88.44145 | 26 ft | 3 kts | 3° |
| 2026-05-06 01:10 | 22.64264 | 88.44144 | 24 ft | 0 kts | 7° |
| 2026-05-06 01:13 | 22.64273 | 88.44145 | 26 ft | 4 kts | 7° |
| 2026-05-06 01:13 | 22.64329 | 88.44152 | 23 ft | 12 kts | 6° |
| 2026-05-06 01:13 | 22.64433 | 88.44164 | 23 ft | 18 kts | 6° |
| 2026-05-06 01:14 | 22.64664 | 88.44191 | 24 ft | 19 kts | 6° |
| 2026-05-06 01:14 | 22.64818 | 88.44209 | 24 ft | 21 kts | 7° |
| 2026-05-06 01:14 | 22.64965 | 88.44225 | 23 ft | 22 kts | 5° |
| 2026-05-06 01:15 | 22.65048 | 88.44244 | 23 ft | 6 kts | 55° |
| 2026-05-06 01:15 | 22.65075 | 88.44307 | 24 ft | 15 kts | 65° |
| 2026-05-06 01:15 | 22.65142 | 88.44421 | 23 ft | 16 kts | 16° |
| 2026-05-06 01:15 | 22.65219 | 88.44424 | 24 ft | 10 kts | 14° |
| 2026-05-06 01:16 | 22.65285 | 88.44434 | 24 ft | 11 kts | 4° |
| 2026-05-06 01:16 | 22.65401 | 88.44447 | 24 ft | 22 kts | 6° |
| 2026-05-06 01:16 | 22.65566 | 88.44464 | 25 ft | 25 kts | 5° |
| 2026-05-06 01:16 | 22.65709 | 88.44481 | 25 ft | 16 kts | 6° |
| 2026-05-06 01:17 | 22.65810 | 88.44492 | 24 ft | 14 kts | 6° |
| 2026-05-06 01:17 | 22.65887 | 88.44531 | 25 ft | 11 kts | 31° |
| 2026-05-06 01:17 | 22.65944 | 88.44568 | 28 ft | 9 kts | 31° |
| 2026-05-06 01:17 | 22.66015 | 88.44616 | 27 ft | 18 kts | 30° |
| 2026-05-06 01:18 | 22.66129 | 88.44695 | 25 ft | 19 kts | 50° |
| 2026-05-06 01:18 | 22.66138 | 88.44822 | 25 ft | 17 kts | 84° |
| 2026-05-06 01:18 | 22.66235 | 88.44877 | 24 ft | 17 kts | 9° |
| 2026-05-06 01:18 | 22.66366 | 88.44885 | 22 ft | 24 kts | 4° |
| 2026-05-06 01:19 | 22.66553 | 88.44913 | 23 ft | 29 kts | 3° |
| 2026-05-06 01:19 | 22.66758 | 88.44932 | 23 ft | 30 kts | 7° |
| 2026-05-06 01:19 | 22.66961 | 88.44955 | 24 ft | 25 kts | 6° |
| 2026-05-06 01:19 | 22.67118 | 88.44974 | 25 ft | 23 kts | 6° |
| 2026-05-06 01:20 | 22.67252 | 88.44990 | 27 ft | 12 kts | 6° |
| 2026-05-06 01:20 | 22.67326 | 88.44999 | 27 ft | 10 kts | 6° |
| 2026-05-06 01:20 | 22.67389 | 88.45006 | 27 ft | 9 kts | 359° |
| 2026-05-06 01:20 | 22.67448 | 88.44993 | 28 ft | 8 kts | 360° |
| 2026-05-06 01:21 | 22.67460 | 88.45030 | 27 ft | 5 kts | 138° |
| 2026-05-06 01:21 | 22.67415 | 88.45013 | 32 ft | 11 kts | 206° |
| 2026-05-06 01:21 | 22.67383 | 88.45005 | 27 ft | 0 kts | 186° |
| 2026-05-06 01:22 | 22.67269 | 88.44991 | 27 ft | 50 kts | 186° |
| 2026-05-06 01:22 | 22.66690 | 88.44928 | 22 ft | 114 kts | 186° |
| 2026-05-06 01:22 | 22.65728 | 88.44818 | 28 ft | 161 kts | 185° |
| 2026-05-06 01:22 | 22.64511 | 88.44663 | 252 ft | 186 kts | 186° |
| 2026-05-06 01:23 | 22.63192 | 88.44485 | 689 ft | 196 kts | 185° |
| 2026-05-06 01:23 | 22.61807 | 88.44314 | 1284 ft | 207 kts | 188° |
| 2026-05-06 01:23 | 22.60370 | 88.43893 | 1808 ft | 225 kts | 209° |
| 2026-05-06 01:23 | 22.59193 | 88.42704 | 2292 ft | 246 kts | 242° |
| 2026-05-06 01:24 | 22.58812 | 88.40857 | 3006 ft | 258 kts | 267° |
| 2026-05-06 01:24 | 22.58820 | 88.38896 | 3864 ft | 262 kts | 269° |
| 2026-05-06 01:24 | 22.58835 | 88.37011 | 4713 ft | 266 kts | 269° |
| 2026-05-06 01:24 | 22.58853 | 88.34993 | 5570 ft | 270 kts | 270° |
| 2026-05-06 01:25 | 22.58871 | 88.32950 | 6389 ft | 273 kts | 269° |
| 2026-05-06 01:25 | 22.58749 | 88.30918 | 7133 ft | 276 kts | 262° |
| 2026-05-06 01:25 | 22.58539 | 88.28844 | 7886 ft | 280 kts | 271° |
| 2026-05-06 01:25 | 22.59019 | 88.26797 | 8637 ft | 286 kts | 299° |
| 2026-05-06 01:26 | 22.60403 | 88.25255 | 9369 ft | 293 kts | 330° |
| 2026-05-06 01:26 | 22.62359 | 88.24609 | 10058 ft | 301 kts | 350° |
| 2026-05-06 01:26 | 22.64511 | 88.24272 | 10275 ft | 324 kts | 351° |
| 2026-05-06 01:26 | 22.66809 | 88.23925 | 10575 ft | 341 kts | 351° |
| 2026-05-06 01:27 | 22.69193 | 88.23568 | 11150 ft | 348 kts | 350° |
| 2026-05-06 01:27 | 22.71606 | 88.23202 | 11799 ft | 353 kts | 350° |
| 2026-05-06 01:27 | 22.74047 | 88.22824 | 12460 ft | 357 kts | 349° |
| 2026-05-06 01:27 | 22.76541 | 88.22607 | 13096 ft | 363 kts | 359° |
| 2026-05-06 01:28 | 22.79075 | 88.22709 | 13683 ft | 369 kts | 359° |
| 2026-05-06 01:28 | 22.81649 | 88.22822 | 14224 ft | 373 kts | 359° |
| 2026-05-06 01:28 | 22.84259 | 88.22935 | 14804 ft | 376 kts | 359° |
| 2026-05-06 01:28 | 22.86877 | 88.23051 | 15389 ft | 379 kts | 359° |
| 2026-05-06 01:29 | 22.89528 | 88.23171 | 15970 ft | 382 kts | 359° |
| 2026-05-06 01:29 | 22.92188 | 88.23291 | 16544 ft | 385 kts | 359° |
| 2026-05-06 01:29 | 22.94839 | 88.23409 | 17107 ft | 388 kts | 359° |
| 2026-05-06 01:29 | 22.97552 | 88.23530 | 17669 ft | 391 kts | 359° |
| 2026-05-06 01:30 | 23.00156 | 88.23647 | 18196 ft | 394 kts | 358° |
| 2026-05-06 01:30 | 23.02908 | 88.23770 | 18655 ft | 397 kts | 358° |
| 2026-05-06 01:30 | 23.05681 | 88.23892 | 19115 ft | 401 kts | 358° |
| 2026-05-06 01:30 | 23.08476 | 88.24017 | 19572 ft | 404 kts | 358° |
| 2026-05-06 01:31 | 23.11296 | 88.24140 | 20050 ft | 407 kts | 358° |
| 2026-05-06 01:31 | 23.14131 | 88.24263 | 20517 ft | 409 kts | 358° |
| 2026-05-06 01:31 | 23.16985 | 88.24391 | 20952 ft | 412 kts | 358° |
| 2026-05-06 01:31 | 23.19863 | 88.24529 | 21384 ft | 416 kts | 359° |
| 2026-05-06 01:32 | 23.22762 | 88.24773 | 21824 ft | 420 kts | 1° |
| 2026-05-06 01:32 | 23.25682 | 88.25127 | 22249 ft | 424 kts | 3° |
| 2026-05-06 01:32 | 23.28578 | 88.25539 | 22658 ft | 427 kts | 3° |
| 2026-05-06 01:32 | 23.31531 | 88.25983 | 23081 ft | 430 kts | 4° |
| 2026-05-06 01:33 | 23.34511 | 88.26423 | 23472 ft | 433 kts | 3° |
| 2026-05-06 01:33 | 23.37506 | 88.26841 | 23807 ft | 436 kts | 2° |
| 2026-05-06 01:33 | 23.40526 | 88.27243 | 24148 ft | 438 kts | 2° |
| 2026-05-06 01:33 | 23.43557 | 88.27633 | 24516 ft | 439 kts | 2° |
| 2026-05-06 01:34 | 23.46595 | 88.28015 | 24878 ft | 441 kts | 2° |
| 2026-05-06 01:34 | 23.49649 | 88.28398 | 25214 ft | 443 kts | 2° |
| 2026-05-06 01:34 | 23.52720 | 88.28786 | 25535 ft | 445 kts | 2° |
| 2026-05-06 01:34 | 23.55805 | 88.29180 | 25846 ft | 448 kts | 2° |
| 2026-05-06 01:35 | 23.58909 | 88.29582 | 26160 ft | 450 kts | 2° |
| 2026-05-06 01:35 | 23.62026 | 88.29988 | 26471 ft | 452 kts | 2° |
| 2026-05-06 01:35 | 23.65159 | 88.30397 | 26772 ft | 455 kts | 2° |
| 2026-05-06 01:35 | 23.68307 | 88.30809 | 27060 ft | 457 kts | 1° |
| 2026-05-06 01:36 | 23.71474 | 88.31222 | 27339 ft | 460 kts | 1° |
| 2026-05-06 01:36 | 23.74665 | 88.31637 | 27662 ft | 462 kts | 1° |
| 2026-05-06 01:36 | 23.77862 | 88.32044 | 27961 ft | 463 kts | 360° |
| 2026-05-06 01:36 | 23.81045 | 88.31961 | 28238 ft | 454 kts | 345° |
| 2026-05-06 01:37 | 23.84034 | 88.31026 | 28512 ft | 445 kts | 330° |
| 2026-05-06 01:37 | 23.86817 | 88.29548 | 28795 ft | 445 kts | 328° |
| 2026-05-06 01:37 | 23.89590 | 88.28038 | 29080 ft | 447 kts | 327° |
| 2026-05-06 01:37 | 23.92375 | 88.26517 | 29357 ft | 448 kts | 327° |
| 2026-05-06 01:38 | 23.95175 | 88.24989 | 29628 ft | 450 kts | 327° |
| 2026-05-06 01:38 | 23.97985 | 88.23457 | 29890 ft | 452 kts | 327° |
| 2026-05-06 01:38 | 24.00794 | 88.21930 | 30115 ft | 454 kts | 327° |
| 2026-05-06 01:38 | 24.03602 | 88.20407 | 30342 ft | 455 kts | 327° |
| 2026-05-06 01:39 | 24.06444 | 88.18869 | 30599 ft | 457 kts | 327° |
| 2026-05-06 01:39 | 24.09309 | 88.17320 | 30758 ft | 460 kts | 327° |
| 2026-05-06 01:39 | 24.12221 | 88.15742 | 30956 ft | 462 kts | 327° |
| 2026-05-06 01:39 | 24.15065 | 88.14193 | 31185 ft | 463 kts | 327° |
| 2026-05-06 01:40 | 24.17942 | 88.12625 | 31523 ft | 461 kts | 327° |
| 2026-05-06 01:40 | 24.20816 | 88.11059 | 31795 ft | 461 kts | 327° |
| 2026-05-06 01:40 | 24.26461 | 88.07987 | 31879 ft | 443 kts | 327° |